sensor_id;sensor_type;location;lat;lon;timestamp;P1;durP1;ratioP1;P2;durP2;ratioP2
2706;SDS011;7819;48.046;7.642;2022-11-15T00:01:52;4.30;;;2.43;;
2706;SDS011;7819;48.046;7.642;2022-11-15T00:04:17;3.60;;;3.10;;
2706;SDS011;7819;48.046;7.642;2022-11-15T00:06:42;3.93;;;3.20;;
2706;SDS011;7819;48.046;7.642;2022-11-15T00:09:08;4.10;;;3.00;;
2706;SDS011;7819;48.046;7.642;2022-11-15T00:11:33;4.83;;;2.80;;
2706;SDS011;7819;48.046;7.642;2022-11-15T00:13:58;4.70;;;3.50;;
2706;SDS011;7819;48.046;7.642;2022-11-15T00:16:24;3.10;;;2.77;;
2706;SDS011;7819;48.046;7.642;2022-11-15T00:18:49;3.87;;;3.10;;
2706;SDS011;7819;48.046;7.642;2022-11-15T00:21:14;3.80;;;3.50;;
2706;SDS011;7819;48.046;7.642;2022-11-15T00:23:40;4.10;;;3.70;;
2706;SDS011;7819;48.046;7.642;2022-11-15T00:26:05;4.63;;;3.20;;
2706;SDS011;7819;48.046;7.642;2022-11-15T00:28:31;4.03;;;3.53;;
2706;SDS011;7819;48.046;7.642;2022-11-15T00:30:59;7.40;;;3.80;;
2706;SDS011;7819;48.046;7.642;2022-11-15T00:33:25;4.50;;;3.63;;
2706;SDS011;7819;48.046;7.642;2022-11-15T00:35:50;4.00;;;3.30;;
2706;SDS011;7819;48.046;7.642;2022-11-15T00:38:15;6.20;;;3.87;;
2706;SDS011;7819;48.046;7.642;2022-11-15T00:40:41;4.33;;;3.93;;
2706;SDS011;7819;48.046;7.642;2022-11-15T00:43:06;3.50;;;3.20;;
2706;SDS011;7819;48.046;7.642;2022-11-15T00:45:31;3.47;;;2.80;;
2706;SDS011;7819;48.046;7.642;2022-11-15T00:47:56;3.70;;;3.40;;
2706;SDS011;7819;48.046;7.642;2022-11-15T00:50:22;3.97;;;3.57;;
2706;SDS011;7819;48.046;7.642;2022-11-15T00:52:47;3.53;;;3.00;;
2706;SDS011;7819;48.046;7.642;2022-11-15T00:55:15;4.50;;;3.27;;
2706;SDS011;7819;48.046;7.642;2022-11-15T00:57:41;3.80;;;2.90;;
2706;SDS011;7819;48.046;7.642;2022-11-15T01:00:06;6.20;;;2.90;;
2706;SDS011;7819;48.046;7.642;2022-11-15T01:02:32;3.67;;;3.30;;
2706;SDS011;7819;48.046;7.642;2022-11-15T01:04:57;2.80;;;2.60;;
2706;SDS011;7819;48.046;7.642;2022-11-15T01:07:22;5.90;;;3.50;;
2706;SDS011;7819;48.046;7.642;2022-11-15T01:09:48;5.00;;;3.57;;
2706;SDS011;7819;48.046;7.642;2022-11-15T01:12:13;4.47;;;3.40;;
2706;SDS011;7819;48.046;7.642;2022-11-15T01:14:38;3.73;;;3.40;;
2706;SDS011;7819;48.046;7.642;2022-11-15T01:17:03;4.90;;;3.10;;
2706;SDS011;7819;48.046;7.642;2022-11-15T01:19:29;3.07;;;2.77;;
2706;SDS011;7819;48.046;7.642;2022-11-15T01:21:55;2.70;;;2.50;;
2706;SDS011;7819;48.046;7.642;2022-11-15T01:24:20;5.20;;;3.03;;
2706;SDS011;7819;48.046;7.642;2022-11-15T01:26:45;3.30;;;2.60;;
2706;SDS011;7819;48.046;7.642;2022-11-15T01:29:10;5.13;;;3.23;;
2706;SDS011;7819;48.046;7.642;2022-11-15T01:31:35;3.73;;;2.77;;
2706;SDS011;7819;48.046;7.642;2022-11-15T01:34:01;3.77;;;2.90;;
2706;SDS011;7819;48.046;7.642;2022-11-15T01:36:26;3.50;;;3.10;;
2706;SDS011;7819;48.046;7.642;2022-11-15T01:38:55;3.53;;;2.83;;
2706;SDS011;7819;48.046;7.642;2022-11-15T01:41:22;2.60;;;2.40;;
2706;SDS011;7819;48.046;7.642;2022-11-15T01:46:42;5.17;;;2.60;;
2706;SDS011;7819;48.046;7.642;2022-11-15T01:49:15;3.00;;;2.77;;
2706;SDS011;7819;48.046;7.642;2022-11-15T01:51:42;3.23;;;2.90;;
2706;SDS011;7819;48.046;7.642;2022-11-15T01:54:08;3.20;;;2.00;;
2706;SDS011;7819;48.046;7.642;2022-11-15T01:56:36;4.13;;;2.60;;
2706;SDS011;7819;48.046;7.642;2022-11-15T01:59:03;4.20;;;3.00;;
2706;SDS011;7819;48.046;7.642;2022-11-15T02:01:30;2.83;;;2.57;;
2706;SDS011;7819;48.046;7.642;2022-11-15T02:04:01;3.90;;;2.40;;
2706;SDS011;7819;48.046;7.642;2022-11-15T02:06:27;3.60;;;2.60;;
2706;SDS011;7819;48.046;7.642;2022-11-15T02:08:52;3.67;;;3.33;;
2706;SDS011;7819;48.046;7.642;2022-11-15T02:11:17;3.10;;;2.63;;
2706;SDS011;7819;48.046;7.642;2022-11-15T02:13:43;2.47;;;2.10;;
2706;SDS011;7819;48.046;7.642;2022-11-15T02:16:13;3.70;;;3.00;;
2706;SDS011;7819;48.046;7.642;2022-11-15T02:18:44;4.03;;;2.67;;
2706;SDS011;7819;48.046;7.642;2022-11-15T02:23:42;2.90;;;2.60;;
2706;SDS011;7819;48.046;7.642;2022-11-15T02:29:05;3.30;;;2.70;;
2706;SDS011;7819;48.046;7.642;2022-11-15T02:45:07;3.63;;;3.30;;
2706;SDS011;7819;48.046;7.642;2022-11-15T02:47:37;3.37;;;2.60;;
2706;SDS011;7819;48.046;7.642;2022-11-15T02:50:06;4.80;;;3.47;;
2706;SDS011;7819;48.046;7.642;2022-11-15T02:52:33;3.00;;;2.70;;
2706;SDS011;7819;48.046;7.642;2022-11-15T02:54:58;3.37;;;3.07;;
2706;SDS011;7819;48.046;7.642;2022-11-15T03:00:12;2.90;;;2.60;;
2706;SDS011;7819;48.046;7.642;2022-11-15T03:10:44;3.23;;;2.90;;
2706;SDS011;7819;48.046;7.642;2022-11-15T03:13:23;3.03;;;2.73;;
2706;SDS011;7819;48.046;7.642;2022-11-15T03:16:06;3.40;;;2.60;;
2706;SDS011;7819;48.046;7.642;2022-11-15T03:18:38;3.47;;;3.13;;
2706;SDS011;7819;48.046;7.642;2022-11-15T03:21:06;3.80;;;3.07;;
2706;SDS011;7819;48.046;7.642;2022-11-15T03:23:32;3.50;;;2.83;;
2706;SDS011;7819;48.046;7.642;2022-11-15T03:25:58;5.80;;;3.23;;
2706;SDS011;7819;48.046;7.642;2022-11-15T03:28:33;4.50;;;3.63;;
2706;SDS011;7819;48.046;7.642;2022-11-15T03:31:00;3.13;;;2.70;;
2706;SDS011;7819;48.046;7.642;2022-11-15T03:33:26;4.33;;;3.27;;
2706;SDS011;7819;48.046;7.642;2022-11-15T03:35:51;18.53;;;4.50;;
2706;SDS011;7819;48.046;7.642;2022-11-15T03:38:26;5.70;;;2.80;;
2706;SDS011;7819;48.046;7.642;2022-11-15T03:40:54;7.30;;;3.00;;
2706;SDS011;7819;48.046;7.642;2022-11-15T03:43:34;3.23;;;2.93;;
2706;SDS011;7819;48.046;7.642;2022-11-15T03:46:02;3.50;;;3.13;;
2706;SDS011;7819;48.046;7.642;2022-11-15T03:48:37;4.30;;;3.40;;
2706;SDS011;7819;48.046;7.642;2022-11-15T03:51:05;3.40;;;3.10;;
2706;SDS011;7819;48.046;7.642;2022-11-15T03:53:30;3.90;;;3.50;;
2706;SDS011;7819;48.046;7.642;2022-11-15T03:55:56;5.50;;;4.03;;
2706;SDS011;7819;48.046;7.642;2022-11-15T03:58:21;4.40;;;3.60;;
2706;SDS011;7819;48.046;7.642;2022-11-15T04:00:47;3.43;;;3.13;;
2706;SDS011;7819;48.046;7.642;2022-11-15T04:03:12;3.27;;;2.80;;
2706;SDS011;7819;48.046;7.642;2022-11-15T04:05:37;3.77;;;3.30;;
2706;SDS011;7819;48.046;7.642;2022-11-15T04:08:02;3.40;;;3.03;;
2706;SDS011;7819;48.046;7.642;2022-11-15T04:10:28;4.10;;;3.23;;
2706;SDS011;7819;48.046;7.642;2022-11-15T04:12:53;3.60;;;3.30;;
2706;SDS011;7819;48.046;7.642;2022-11-15T04:15:19;4.13;;;3.10;;
2706;SDS011;7819;48.046;7.642;2022-11-15T04:22:57;4.60;;;3.53;;
2706;SDS011;7819;48.046;7.642;2022-11-15T04:25:41;3.80;;;3.37;;
2706;SDS011;7819;48.046;7.642;2022-11-15T04:28:07;3.90;;;3.20;;
2706;SDS011;7819;48.046;7.642;2022-11-15T04:30:32;11.07;;;3.70;;
2706;SDS011;7819;48.046;7.642;2022-11-15T04:32:57;3.30;;;3.00;;
2706;SDS011;7819;48.046;7.642;2022-11-15T04:35:23;2.93;;;2.63;;
2706;SDS011;7819;48.046;7.642;2022-11-15T04:37:48;3.27;;;2.83;;
2706;SDS011;7819;48.046;7.642;2022-11-15T04:40:13;4.33;;;3.53;;
2706;SDS011;7819;48.046;7.642;2022-11-15T04:42:40;8.80;;;3.40;;
2706;SDS011;7819;48.046;7.642;2022-11-15T04:45:05;4.17;;;2.70;;
2706;SDS011;7819;48.046;7.642;2022-11-15T04:47:31;4.87;;;3.50;;
2706;SDS011;7819;48.046;7.642;2022-11-15T04:49:56;3.10;;;2.80;;
2706;SDS011;7819;48.046;7.642;2022-11-15T04:52:21;6.13;;;3.60;;
2706;SDS011;7819;48.046;7.642;2022-11-15T04:54:47;2.60;;;2.23;;
2706;SDS011;7819;48.046;7.642;2022-11-15T04:57:12;3.03;;;2.70;;
2706;SDS011;7819;48.046;7.642;2022-11-15T04:59:37;3.73;;;3.20;;
2706;SDS011;7819;48.046;7.642;2022-11-15T05:02:02;3.73;;;2.90;;
2706;SDS011;7819;48.046;7.642;2022-11-15T05:04:28;5.43;;;3.33;;
2706;SDS011;7819;48.046;7.642;2022-11-15T05:06:53;4.77;;;3.40;;
2706;SDS011;7819;48.046;7.642;2022-11-15T05:09:19;2.80;;;2.50;;
2706;SDS011;7819;48.046;7.642;2022-11-15T05:11:44;3.90;;;2.80;;
2706;SDS011;7819;48.046;7.642;2022-11-15T05:14:10;3.80;;;3.40;;
2706;SDS011;7819;48.046;7.642;2022-11-15T05:16:35;5.30;;;3.07;;
2706;SDS011;7819;48.046;7.642;2022-11-15T05:19:01;5.30;;;3.20;;
2706;SDS011;7819;48.046;7.642;2022-11-15T05:21:26;4.60;;;3.10;;
2706;SDS011;7819;48.046;7.642;2022-11-15T05:23:51;5.00;;;4.43;;
2706;SDS011;7819;48.046;7.642;2022-11-15T05:26:17;4.57;;;3.33;;
2706;SDS011;7819;48.046;7.642;2022-11-15T05:28:42;3.43;;;3.17;;
2706;SDS011;7819;48.046;7.642;2022-11-15T05:31:09;4.20;;;3.70;;
2706;SDS011;7819;48.046;7.642;2022-11-15T05:33:35;4.10;;;3.70;;
2706;SDS011;7819;48.046;7.642;2022-11-15T05:36:04;4.43;;;3.90;;
2706;SDS011;7819;48.046;7.642;2022-11-15T05:38:31;6.43;;;4.13;;
2706;SDS011;7819;48.046;7.642;2022-11-15T05:40:56;6.17;;;4.40;;
2706;SDS011;7819;48.046;7.642;2022-11-15T05:43:22;5.83;;;4.00;;
2706;SDS011;7819;48.046;7.642;2022-11-15T05:45:47;5.53;;;3.87;;
2706;SDS011;7819;48.046;7.642;2022-11-15T05:48:13;4.30;;;3.90;;
2706;SDS011;7819;48.046;7.642;2022-11-15T05:50:39;5.00;;;4.03;;
2706;SDS011;7819;48.046;7.642;2022-11-15T05:53:06;3.57;;;3.10;;
2706;SDS011;7819;48.046;7.642;2022-11-15T05:55:31;8.77;;;7.97;;
2706;SDS011;7819;48.046;7.642;2022-11-15T05:57:56;8.20;;;6.97;;
2706;SDS011;7819;48.046;7.642;2022-11-15T06:00:22;5.37;;;4.87;;
2706;SDS011;7819;48.046;7.642;2022-11-15T06:02:47;6.27;;;5.00;;
2706;SDS011;7819;48.046;7.642;2022-11-15T06:05:12;4.40;;;4.00;;
2706;SDS011;7819;48.046;7.642;2022-11-15T06:07:37;4.33;;;3.93;;
2706;SDS011;7819;48.046;7.642;2022-11-15T06:10:03;4.37;;;4.00;;
2706;SDS011;7819;48.046;7.642;2022-11-15T06:12:28;4.67;;;3.97;;
2706;SDS011;7819;48.046;7.642;2022-11-15T06:14:53;6.43;;;4.10;;
2706;SDS011;7819;48.046;7.642;2022-11-15T06:17:18;8.57;;;7.73;;
2706;SDS011;7819;48.046;7.642;2022-11-15T06:19:43;6.57;;;5.87;;
2706;SDS011;7819;48.046;7.642;2022-11-15T06:22:09;5.27;;;4.87;;
2706;SDS011;7819;48.046;7.642;2022-11-15T06:24:34;12.23;;;10.63;;
2706;SDS011;7819;48.046;7.642;2022-11-15T06:26:59;12.50;;;11.20;;
2706;SDS011;7819;48.046;7.642;2022-11-15T06:29:25;13.50;;;11.03;;
2706;SDS011;7819;48.046;7.642;2022-11-15T06:31:50;9.67;;;6.90;;
2706;SDS011;7819;48.046;7.642;2022-11-15T06:34:15;6.87;;;5.03;;
2706;SDS011;7819;48.046;7.642;2022-11-15T06:36:41;5.30;;;4.80;;
2706;SDS011;7819;48.046;7.642;2022-11-15T06:39:06;5.20;;;4.47;;
2706;SDS011;7819;48.046;7.642;2022-11-15T06:41:33;4.43;;;4.03;;
2706;SDS011;7819;48.046;7.642;2022-11-15T06:43:58;5.30;;;4.90;;
2706;SDS011;7819;48.046;7.642;2022-11-15T06:46:24;6.93;;;4.70;;
2706;SDS011;7819;48.046;7.642;2022-11-15T06:48:52;5.23;;;4.70;;
2706;SDS011;7819;48.046;7.642;2022-11-15T06:51:18;7.83;;;7.00;;
2706;SDS011;7819;48.046;7.642;2022-11-15T06:53:43;5.43;;;4.90;;
2706;SDS011;7819;48.046;7.642;2022-11-15T06:56:09;8.77;;;7.20;;
2706;SDS011;7819;48.046;7.642;2022-11-15T06:58:35;8.97;;;5.63;;
2706;SDS011;7819;48.046;7.642;2022-11-15T07:01:10;6.67;;;5.97;;
2706;SDS011;7819;48.046;7.642;2022-11-15T07:03:36;7.10;;;6.40;;
2706;SDS011;7819;48.046;7.642;2022-11-15T07:06:01;10.33;;;9.30;;
2706;SDS011;7819;48.046;7.642;2022-11-15T07:08:27;6.73;;;6.13;;
2706;SDS011;7819;48.046;7.642;2022-11-15T07:10:53;7.00;;;4.50;;
2706;SDS011;7819;48.046;7.642;2022-11-15T07:13:18;5.90;;;5.40;;
2706;SDS011;7819;48.046;7.642;2022-11-15T07:15:43;5.97;;;4.97;;
2706;SDS011;7819;48.046;7.642;2022-11-15T07:18:08;8.10;;;6.43;;
2706;SDS011;7819;48.046;7.642;2022-11-15T07:20:34;13.23;;;9.17;;
2706;SDS011;7819;48.046;7.642;2022-11-15T07:23:03;16.33;;;12.20;;
2706;SDS011;7819;48.046;7.642;2022-11-15T07:25:29;10.63;;;8.50;;
2706;SDS011;7819;48.046;7.642;2022-11-15T07:27:55;14.23;;;11.60;;
2706;SDS011;7819;48.046;7.642;2022-11-15T07:30:20;9.53;;;8.50;;
2706;SDS011;7819;48.046;7.642;2022-11-15T07:32:45;9.33;;;8.17;;
2706;SDS011;7819;48.046;7.642;2022-11-15T07:35:11;9.73;;;7.83;;
2706;SDS011;7819;48.046;7.642;2022-11-15T07:37:36;10.37;;;8.33;;
2706;SDS011;7819;48.046;7.642;2022-11-15T07:40:01;11.50;;;10.30;;
2706;SDS011;7819;48.046;7.642;2022-11-15T07:42:27;10.37;;;8.73;;
2706;SDS011;7819;48.046;7.642;2022-11-15T07:45:11;8.33;;;7.30;;
2706;SDS011;7819;48.046;7.642;2022-11-15T07:47:36;9.23;;;7.50;;
2706;SDS011;7819;48.046;7.642;2022-11-15T07:50:01;10.33;;;7.60;;
2706;SDS011;7819;48.046;7.642;2022-11-15T07:52:26;5.80;;;5.30;;
2706;SDS011;7819;48.046;7.642;2022-11-15T07:54:52;8.53;;;6.20;;
2706;SDS011;7819;48.046;7.642;2022-11-15T07:57:17;7.90;;;7.20;;
2706;SDS011;7819;48.046;7.642;2022-11-15T07:59:42;5.80;;;5.20;;
2706;SDS011;7819;48.046;7.642;2022-11-15T08:02:08;5.83;;;5.10;;
2706;SDS011;7819;48.046;7.642;2022-11-15T08:04:33;4.10;;;3.77;;
2706;SDS011;7819;48.046;7.642;2022-11-15T08:06:59;6.23;;;4.40;;
2706;SDS011;7819;48.046;7.642;2022-11-15T08:09:24;4.50;;;4.10;;
2706;SDS011;7819;48.046;7.642;2022-11-15T08:11:49;4.70;;;4.20;;
2706;SDS011;7819;48.046;7.642;2022-11-15T08:14:14;6.07;;;4.97;;
2706;SDS011;7819;48.046;7.642;2022-11-15T08:16:40;5.43;;;4.93;;
2706;SDS011;7819;48.046;7.642;2022-11-15T08:19:05;6.73;;;4.60;;
2706;SDS011;7819;48.046;7.642;2022-11-15T08:21:30;5.30;;;4.70;;
2706;SDS011;7819;48.046;7.642;2022-11-15T08:23:55;4.40;;;4.00;;
2706;SDS011;7819;48.046;7.642;2022-11-15T08:26:20;5.90;;;4.83;;
2706;SDS011;7819;48.046;7.642;2022-11-15T08:28:46;4.70;;;4.30;;
2706;SDS011;7819;48.046;7.642;2022-11-15T08:31:15;6.80;;;5.50;;
2706;SDS011;7819;48.046;7.642;2022-11-15T08:33:41;5.00;;;4.50;;
2706;SDS011;7819;48.046;7.642;2022-11-15T08:36:10;4.63;;;4.23;;
2706;SDS011;7819;48.046;7.642;2022-11-15T08:38:36;5.23;;;4.57;;
2706;SDS011;7819;48.046;7.642;2022-11-15T08:41:03;5.00;;;4.50;;
2706;SDS011;7819;48.046;7.642;2022-11-15T08:43:28;7.33;;;4.77;;
2706;SDS011;7819;48.046;7.642;2022-11-15T08:45:57;5.63;;;5.00;;
2706;SDS011;7819;48.046;7.642;2022-11-15T08:48:22;6.03;;;5.20;;
2706;SDS011;7819;48.046;7.642;2022-11-15T08:50:48;10.00;;;5.33;;
2706;SDS011;7819;48.046;7.642;2022-11-15T08:53:13;6.73;;;4.77;;
2706;SDS011;7819;48.046;7.642;2022-11-15T08:55:39;5.90;;;5.00;;
2706;SDS011;7819;48.046;7.642;2022-11-15T08:58:04;5.43;;;4.93;;
2706;SDS011;7819;48.046;7.642;2022-11-15T09:00:29;9.00;;;4.80;;
2706;SDS011;7819;48.046;7.642;2022-11-15T09:02:55;16.53;;;10.10;;
2706;SDS011;7819;48.046;7.642;2022-11-15T09:05:20;7.83;;;6.23;;
2706;SDS011;7819;48.046;7.642;2022-11-15T09:07:45;4.90;;;4.50;;
2706;SDS011;7819;48.046;7.642;2022-11-15T09:10:10;5.70;;;5.20;;
2706;SDS011;7819;48.046;7.642;2022-11-15T09:12:36;6.90;;;6.30;;
2706;SDS011;7819;48.046;7.642;2022-11-15T09:15:01;6.97;;;5.87;;
2706;SDS011;7819;48.046;7.642;2022-11-15T09:17:26;8.13;;;7.37;;
2706;SDS011;7819;48.046;7.642;2022-11-15T09:19:51;6.50;;;5.90;;
2706;SDS011;7819;48.046;7.642;2022-11-15T09:22:17;7.93;;;7.20;;
2706;SDS011;7819;48.046;7.642;2022-11-15T09:24:42;6.90;;;6.30;;
2706;SDS011;7819;48.046;7.642;2022-11-15T09:27:07;8.27;;;7.47;;
2706;SDS011;7819;48.046;7.642;2022-11-15T09:29:33;7.50;;;6.70;;
2706;SDS011;7819;48.046;7.642;2022-11-15T09:31:58;7.80;;;7.10;;
2706;SDS011;7819;48.046;7.642;2022-11-15T09:34:24;7.47;;;5.93;;
2706;SDS011;7819;48.046;7.642;2022-11-15T09:36:49;6.43;;;5.77;;
2706;SDS011;7819;48.046;7.642;2022-11-15T09:39:14;7.30;;;5.73;;
2706;SDS011;7819;48.046;7.642;2022-11-15T09:42:01;6.17;;;5.67;;
2706;SDS011;7819;48.046;7.642;2022-11-15T09:47:10;8.47;;;6.60;;
2706;SDS011;7819;48.046;7.642;2022-11-15T09:49:39;16.20;;;12.27;;
2706;SDS011;7819;48.046;7.642;2022-11-15T09:52:06;9.40;;;7.73;;
2706;SDS011;7819;48.046;7.642;2022-11-15T09:54:36;35.10;;;21.70;;
2706;SDS011;7819;48.046;7.642;2022-11-15T09:57:12;8.70;;;7.77;;
2706;SDS011;7819;48.046;7.642;2022-11-15T09:59:46;7.33;;;5.00;;
2706;SDS011;7819;48.046;7.642;2022-11-15T10:05:09;5.33;;;4.83;;
2706;SDS011;7819;48.046;7.642;2022-11-15T10:07:57;7.20;;;5.87;;
2706;SDS011;7819;48.046;7.642;2022-11-15T10:10:39;6.07;;;5.57;;
2706;SDS011;7819;48.046;7.642;2022-11-15T10:13:07;7.27;;;5.50;;
2706;SDS011;7819;48.046;7.642;2022-11-15T10:15:36;5.53;;;5.03;;
2706;SDS011;7819;48.046;7.642;2022-11-15T10:20:30;6.63;;;6.03;;
2706;SDS011;7819;48.046;7.642;2022-11-15T10:23:01;6.50;;;5.37;;
2706;SDS011;7819;48.046;7.642;2022-11-15T10:25:27;4.83;;;3.50;;
2706;SDS011;7819;48.046;7.642;2022-11-15T10:30:18;5.37;;;4.07;;
2706;SDS011;7819;48.046;7.642;2022-11-15T10:32:44;5.23;;;4.77;;
2706;SDS011;7819;48.046;7.642;2022-11-15T10:35:17;10.17;;;5.10;;
2706;SDS011;7819;48.046;7.642;2022-11-15T10:37:43;4.70;;;3.90;;
2706;SDS011;7819;48.046;7.642;2022-11-15T10:40:21;5.27;;;4.57;;
2706;SDS011;7819;48.046;7.642;2022-11-15T10:42:47;4.37;;;4.07;;
2706;SDS011;7819;48.046;7.642;2022-11-15T10:45:22;6.10;;;4.30;;
2706;SDS011;7819;48.046;7.642;2022-11-15T10:47:48;4.60;;;3.93;;
2706;SDS011;7819;48.046;7.642;2022-11-15T10:52:51;5.17;;;4.50;;
2706;SDS011;7819;48.046;7.642;2022-11-15T10:57:47;7.73;;;4.23;;
2706;SDS011;7819;48.046;7.642;2022-11-15T11:08:02;4.63;;;4.20;;
2706;SDS011;7819;48.046;7.642;2022-11-15T11:10:28;5.73;;;4.00;;
2706;SDS011;7819;48.046;7.642;2022-11-15T11:12:53;3.70;;;3.40;;
2706;SDS011;7819;48.046;7.642;2022-11-15T11:15:19;6.23;;;3.80;;
2706;SDS011;7819;48.046;7.642;2022-11-15T11:17:53;4.60;;;4.20;;
2706;SDS011;7819;48.046;7.642;2022-11-15T11:23:02;10.33;;;4.87;;
2706;SDS011;7819;48.046;7.642;2022-11-15T11:25:35;7.17;;;3.97;;
2706;SDS011;7819;48.046;7.642;2022-11-15T11:31:00;4.17;;;3.77;;
2706;SDS011;7819;48.046;7.642;2022-11-15T11:33:42;6.97;;;3.33;;
2706;SDS011;7819;48.046;7.642;2022-11-15T11:36:25;7.83;;;3.50;;
2706;SDS011;7819;48.046;7.642;2022-11-15T11:44:01;4.63;;;3.10;;
2706;SDS011;7819;48.046;7.642;2022-11-15T11:51:44;4.37;;;3.00;;
2706;SDS011;7819;48.046;7.642;2022-11-15T11:54:17;3.67;;;3.37;;
2706;SDS011;7819;48.046;7.642;2022-11-15T11:56:44;6.53;;;5.93;;
2706;SDS011;7819;48.046;7.642;2022-11-15T12:01:42;7.20;;;6.10;;
2706;SDS011;7819;48.046;7.642;2022-11-15T12:04:19;8.50;;;7.70;;
2706;SDS011;7819;48.046;7.642;2022-11-15T12:12:08;8.80;;;5.00;;
2706;SDS011;7819;48.046;7.642;2022-11-15T12:14:42;17.63;;;15.80;;
2706;SDS011;7819;48.046;7.642;2022-11-15T12:17:10;5.40;;;4.90;;
2706;SDS011;7819;48.046;7.642;2022-11-15T12:19:35;5.37;;;4.57;;
2706;SDS011;7819;48.046;7.642;2022-11-15T12:22:12;9.10;;;8.33;;
2706;SDS011;7819;48.046;7.642;2022-11-15T12:24:40;6.00;;;5.40;;
2706;SDS011;7819;48.046;7.642;2022-11-15T12:29:35;4.43;;;3.30;;
2706;SDS011;7819;48.046;7.642;2022-11-15T12:32:00;4.30;;;3.57;;
2706;SDS011;7819;48.046;7.642;2022-11-15T12:36:52;5.00;;;4.50;;
2706;SDS011;7819;48.046;7.642;2022-11-15T12:39:17;5.30;;;4.80;;
2706;SDS011;7819;48.046;7.642;2022-11-15T13:02:34;7.60;;;5.47;;
2706;SDS011;7819;48.046;7.642;2022-11-15T13:15:30;5.93;;;5.43;;
2706;SDS011;7819;48.046;7.642;2022-11-15T13:17:54;7.73;;;5.40;;
2706;SDS011;7819;48.046;7.642;2022-11-15T13:20:21;6.67;;;4.83;;
2706;SDS011;7819;48.046;7.642;2022-11-15T13:22:48;5.00;;;4.53;;
2706;SDS011;7819;48.046;7.642;2022-11-15T13:30:38;6.47;;;5.53;;
2706;SDS011;7819;48.046;7.642;2022-11-15T13:33:13;5.00;;;4.50;;
2706;SDS011;7819;48.046;7.642;2022-11-15T13:35:40;7.03;;;4.90;;
2706;SDS011;7819;48.046;7.642;2022-11-15T13:38:06;5.90;;;4.03;;
2706;SDS011;7819;48.046;7.642;2022-11-15T13:40:35;6.47;;;5.50;;
2706;SDS011;7819;48.046;7.642;2022-11-15T13:43:15;5.67;;;5.17;;
2706;SDS011;7819;48.046;7.642;2022-11-15T13:45:42;6.50;;;5.10;;
2706;SDS011;7819;48.046;7.642;2022-11-15T13:48:07;4.80;;;4.30;;
2706;SDS011;7819;48.046;7.642;2022-11-15T13:50:33;7.07;;;4.60;;
2706;SDS011;7819;48.046;7.642;2022-11-15T13:53:00;5.70;;;5.07;;
2706;SDS011;7819;48.046;7.642;2022-11-15T13:55:27;8.53;;;4.90;;
2706;SDS011;7819;48.046;7.642;2022-11-15T13:57:55;5.00;;;4.50;;
2706;SDS011;7819;48.046;7.642;2022-11-15T14:02:47;7.53;;;5.53;;
2706;SDS011;7819;48.046;7.642;2022-11-15T14:05:19;5.30;;;4.47;;
2706;SDS011;7819;48.046;7.642;2022-11-15T14:10:37;5.47;;;4.80;;
2706;SDS011;7819;48.046;7.642;2022-11-15T14:13:03;6.27;;;4.13;;
2706;SDS011;7819;48.046;7.642;2022-11-15T14:15:33;4.90;;;4.40;;
2706;SDS011;7819;48.046;7.642;2022-11-15T14:17:59;8.27;;;5.87;;
2706;SDS011;7819;48.046;7.642;2022-11-15T14:22:53;5.30;;;4.80;;
2706;SDS011;7819;48.046;7.642;2022-11-15T14:25:20;11.73;;;6.10;;
2706;SDS011;7819;48.046;7.642;2022-11-15T14:30:30;9.87;;;6.20;;
2706;SDS011;7819;48.046;7.642;2022-11-15T14:32:55;8.77;;;5.20;;
2706;SDS011;7819;48.046;7.642;2022-11-15T14:35:21;6.43;;;5.30;;
2706;SDS011;7819;48.046;7.642;2022-11-15T14:37:46;5.50;;;4.93;;
2706;SDS011;7819;48.046;7.642;2022-11-15T14:40:14;9.97;;;4.77;;
2706;SDS011;7819;48.046;7.642;2022-11-15T14:42:39;8.87;;;5.70;;
2706;SDS011;7819;48.046;7.642;2022-11-15T14:45:12;7.10;;;5.70;;
2706;SDS011;7819;48.046;7.642;2022-11-15T14:47:38;5.37;;;4.87;;
2706;SDS011;7819;48.046;7.642;2022-11-15T14:50:03;5.00;;;4.57;;
2706;SDS011;7819;48.046;7.642;2022-11-15T14:52:30;6.67;;;6.00;;
2706;SDS011;7819;48.046;7.642;2022-11-15T14:54:58;6.20;;;5.60;;
2706;SDS011;7819;48.046;7.642;2022-11-15T14:57:24;6.23;;;5.63;;
2706;SDS011;7819;48.046;7.642;2022-11-15T14:59:49;6.83;;;6.20;;
2706;SDS011;7819;48.046;7.642;2022-11-15T15:02:15;8.70;;;6.60;;
2706;SDS011;7819;48.046;7.642;2022-11-15T15:04:41;7.23;;;6.03;;
2706;SDS011;7819;48.046;7.642;2022-11-15T15:07:06;7.50;;;5.60;;
2706;SDS011;7819;48.046;7.642;2022-11-15T15:09:32;9.77;;;6.37;;
2706;SDS011;7819;48.046;7.642;2022-11-15T15:11:57;9.17;;;6.67;;
2706;SDS011;7819;48.046;7.642;2022-11-15T15:14:22;6.33;;;5.73;;
2706;SDS011;7819;48.046;7.642;2022-11-15T15:16:48;9.10;;;6.30;;
2706;SDS011;7819;48.046;7.642;2022-11-15T15:19:13;6.83;;;5.60;;
2706;SDS011;7819;48.046;7.642;2022-11-15T15:21:38;6.23;;;5.43;;
2706;SDS011;7819;48.046;7.642;2022-11-15T15:24:03;9.30;;;5.40;;
2706;SDS011;7819;48.046;7.642;2022-11-15T15:26:29;7.27;;;6.57;;
2706;SDS011;7819;48.046;7.642;2022-11-15T15:28:54;7.50;;;6.80;;
2706;SDS011;7819;48.046;7.642;2022-11-15T15:31:19;7.83;;;6.57;;
2706;SDS011;7819;48.046;7.642;2022-11-15T15:33:44;10.00;;;6.53;;
2706;SDS011;7819;48.046;7.642;2022-11-15T15:36:14;6.97;;;5.40;;
2706;SDS011;7819;48.046;7.642;2022-11-15T15:38:39;7.83;;;6.40;;
2706;SDS011;7819;48.046;7.642;2022-11-15T15:41:10;10.90;;;6.00;;
2706;SDS011;7819;48.046;7.642;2022-11-15T15:43:36;6.97;;;5.70;;
2706;SDS011;7819;48.046;7.642;2022-11-15T15:46:01;8.27;;;5.47;;
2706;SDS011;7819;48.046;7.642;2022-11-15T15:48:26;31.63;;;8.90;;
2706;SDS011;7819;48.046;7.642;2022-11-15T15:50:51;7.90;;;6.03;;
2706;SDS011;7819;48.046;7.642;2022-11-15T15:53:17;6.20;;;5.00;;
2706;SDS011;7819;48.046;7.642;2022-11-15T15:55:42;12.10;;;7.20;;
2706;SDS011;7819;48.046;7.642;2022-11-15T15:58:07;7.17;;;5.50;;
2706;SDS011;7819;48.046;7.642;2022-11-15T16:00:33;8.03;;;6.00;;
2706;SDS011;7819;48.046;7.642;2022-11-15T16:02:58;10.73;;;6.63;;
2706;SDS011;7819;48.046;7.642;2022-11-15T16:05:24;7.83;;;5.60;;
2706;SDS011;7819;48.046;7.642;2022-11-15T16:07:49;8.93;;;5.57;;
2706;SDS011;7819;48.046;7.642;2022-11-15T16:12:43;6.17;;;5.47;;
2706;SDS011;7819;48.046;7.642;2022-11-15T16:15:08;6.17;;;5.57;;
2706;SDS011;7819;48.046;7.642;2022-11-15T16:17:37;7.00;;;6.07;;
2706;SDS011;7819;48.046;7.642;2022-11-15T16:20:02;6.07;;;5.50;;
2706;SDS011;7819;48.046;7.642;2022-11-15T16:22:28;6.57;;;5.87;;
2706;SDS011;7819;48.046;7.642;2022-11-15T16:24:54;13.10;;;6.60;;
2706;SDS011;7819;48.046;7.642;2022-11-15T16:27:19;5.73;;;5.03;;
2706;SDS011;7819;48.046;7.642;2022-11-15T16:29:45;6.73;;;4.77;;
2706;SDS011;7819;48.046;7.642;2022-11-15T16:32:11;7.57;;;5.47;;
2706;SDS011;7819;48.046;7.642;2022-11-15T16:34:36;8.13;;;6.30;;
2706;SDS011;7819;48.046;7.642;2022-11-15T16:37:01;9.80;;;7.57;;
2706;SDS011;7819;48.046;7.642;2022-11-15T16:39:27;10.97;;;9.20;;
2706;SDS011;7819;48.046;7.642;2022-11-15T16:41:54;9.97;;;7.27;;
2706;SDS011;7819;48.046;7.642;2022-11-15T16:44:20;11.80;;;7.30;;
2706;SDS011;7819;48.046;7.642;2022-11-15T16:46:45;9.93;;;7.60;;
2706;SDS011;7819;48.046;7.642;2022-11-15T16:49:15;8.57;;;6.00;;
2706;SDS011;7819;48.046;7.642;2022-11-15T16:51:41;8.07;;;6.27;;
2706;SDS011;7819;48.046;7.642;2022-11-15T16:54:06;11.70;;;6.87;;
2706;SDS011;7819;48.046;7.642;2022-11-15T16:56:32;6.37;;;5.47;;
2706;SDS011;7819;48.046;7.642;2022-11-15T16:58:58;7.03;;;6.03;;
2706;SDS011;7819;48.046;7.642;2022-11-15T17:01:24;7.57;;;6.00;;
2706;SDS011;7819;48.046;7.642;2022-11-15T17:03:50;7.30;;;6.70;;
2706;SDS011;7819;48.046;7.642;2022-11-15T17:06:15;5.90;;;5.30;;
2706;SDS011;7819;48.046;7.642;2022-11-15T17:08:42;7.90;;;7.10;;
2706;SDS011;7819;48.046;7.642;2022-11-15T17:11:07;16.00;;;11.63;;
2706;SDS011;7819;48.046;7.642;2022-11-15T17:13:33;230.20;;;169.20;;
2706;SDS011;7819;48.046;7.642;2022-11-15T17:16:11;159.30;;;105.50;;
2706;SDS011;7819;48.046;7.642;2022-11-15T17:18:37;55.73;;;42.83;;
2706;SDS011;7819;48.046;7.642;2022-11-15T17:21:03;68.70;;;57.27;;
2706;SDS011;7819;48.046;7.642;2022-11-15T17:23:29;71.23;;;58.73;;
2706;SDS011;7819;48.046;7.642;2022-11-15T17:25:58;16.53;;;13.03;;
2706;SDS011;7819;48.046;7.642;2022-11-15T17:28:23;11.77;;;10.50;;
2706;SDS011;7819;48.046;7.642;2022-11-15T17:30:49;40.47;;;36.47;;